Time;durP1;ratioP1;P1;durP2;ratioP2;P2;SDS_P1;SDS_P2;PMS_P1;PMS_P2;Temp;Humidity;BMP_temperature;BMP_pressure;BME280_temperature;BME280_humidity;BME280_pressure;Samples;Min_cycle;Max_cycle;Signal;HPM_P1;HPM_P2
2021/05/25 00:01:33;;;;;;;3.20;0.90;;;12.90;99.90;;;;;;5072173;28;20028;-86
2021/05/25 00:03:59;;;;;;;3.78;0.90;;;12.50;99.90;;;;;;5072402;28;20079;-86
2021/05/25 00:06:24;;;;;;;4.28;0.98;;;12.40;99.90;;;;;;5073042;28;20524;-86
2021/05/25 00:08:50;;;;;;;2.83;1.00;;;12.30;99.90;;;;;;5072255;28;20032;-86
2021/05/25 00:11:16;;;;;;;2.60;0.90;;;12.20;99.90;;;;;;5073250;28;20439;-86
2021/05/25 00:13:42;;;;;;;6.85;1.00;;;12.00;99.90;;;;;;5071543;28;20409;-87
2021/05/25 00:16:08;;;;;;;3.90;0.98;;;12.00;1.00;;;;;;5072828;28;20036;-86
2021/05/25 00:18:34;;;;;;;3.60;0.77;;;12.00;1.00;;;;;;5072922;28;20023;-86
2021/05/25 00:20:59;;;;;;;2.08;0.75;;;11.70;99.90;;;;;;5072364;28;20028;-86
2021/05/25 00:23:25;;;;;;;3.00;1.00;;;11.70;1.00;;;;;;5072063;28;20036;-86
2021/05/25 00:25:51;;;;;;;3.58;1.00;;;12.10;1.00;;;;;;5072850;28;20032;-85
2021/05/25 00:28:20;;;;;;;5.13;1.00;;;11.60;1.00;;;;;;5071954;28;20020;-87
2021/05/25 00:30:46;;;;;;;1.55;0.80;;;11.70;1.00;;;;;;5072506;28;20020;-86
2021/05/25 00:33:11;;;;;;;3.33;1.05;;;11.50;1.00;;;;;;5073783;28;20090;-86
2021/05/25 00:35:40;;;;;;;4.22;1.00;;;11.50;1.00;;;;;;5072404;28;20071;-86
2021/05/25 00:38:05;;;;;;;2.38;0.90;;;11.50;1.00;;;;;;5071259;28;20033;-86
2021/05/25 00:40:31;;;;;;;4.32;1.00;;;11.40;1.00;;;;;;5070666;28;20021;-86
2021/05/25 00:42:57;;;;;;;2.45;0.88;;;11.40;1.00;;;;;;5070406;28;20050;-86
2021/05/25 00:45:23;;;;;;;3.33;0.90;;;11.50;1.00;;;;;;5074077;28;20029;-86
2021/05/25 00:47:48;;;;;;;3.28;1.00;;;11.60;1.00;;;;;;5070583;28;20108;-86
2021/05/25 00:50:24;;;;;;;2.20;0.82;;;11.30;1.00;;;;;;5072278;28;20020;-85
2021/05/25 00:52:52;;;;;;;5.15;1.13;;;11.10;1.00;;;;;;5066369;28;20025;-87
2021/05/25 00:55:21;;;;;;;5.65;0.80;;;11.50;1.00;;;;;;5071966;28;20501;-87
2021/05/25 00:57:49;;;;;;;2.88;1.08;;;11.10;1.00;;;;;;5070763;28;20481;-86
2021/05/25 01:00:17;;;;;;;3.75;0.93;;;11.20;1.00;;;;;;5072407;28;20058;-86
2021/05/25 01:02:43;;;;;;;2.58;0.85;;;11.10;1.00;;;;;;5074186;28;20043;-86
2021/05/25 01:05:11;;;;;;;4.22;1.00;;;11.00;1.00;;;;;;5074510;28;20028;-86
2021/05/25 01:07:37;;;;;;;2.83;1.00;;;10.90;1.00;;;;;;5073076;28;20497;-87
2021/05/25 01:10:05;;;;;;;5.00;0.98;;;11.10;1.00;;;;;;5070355;28;20044;-86
2021/05/25 01:12:33;;;;;;;4.05;1.30;;;10.70;1.00;;;;;;5072807;28;20165;-86
2021/05/25 01:15:05;;;;;;;1.25;0.82;;;11.00;1.00;;;;;;5071550;28;20044;-86
2021/05/25 01:17:32;;;;;;;3.38;0.70;;;10.70;1.00;;;;;;5069917;28;20020;-86
2021/05/25 01:19:59;;;;;;;2.53;1.20;;;10.70;1.00;;;;;;5071876;28;20064;-86
2021/05/25 01:22:27;;;;;;;3.10;1.10;;;10.80;1.00;;;;;;5070168;28;20017;-86
2021/05/25 01:24:52;;;;;;;3.97;1.20;;;10.70;1.00;;;;;;5070292;28;20532;-86
2021/05/25 01:27:18;;;;;;;6.47;1.20;;;10.60;1.00;;;;;;5072480;28;20017;-87
2021/05/25 01:29:44;;;;;;;2.30;1.00;;;10.50;1.00;;;;;;5070185;28;20119;-86
2021/05/25 01:32:09;;;;;;;3.47;1.25;;;10.40;1.00;;;;;;5070972;28;20044;-86
2021/05/25 01:34:36;;;;;;;2.88;0.80;;;10.40;1.00;;;;;;5071452;28;20086;-86
2021/05/25 01:37:02;;;;;;;4.63;1.27;;;10.80;1.00;;;;;;5071717;28;20029;-86
2021/05/25 01:39:28;;;;;;;2.53;0.98;;;10.50;1.00;;;;;;5072078;28;20056;-86
2021/05/25 01:41:54;;;;;;;3.33;1.15;;;10.50;1.00;;;;;;5071034;28;20109;-84
2021/05/25 01:44:19;;;;;;;3.95;1.20;;;10.40;1.00;;;;;;5071494;28;20025;-86
2021/05/25 01:46:46;;;;;;;3.15;1.35;;;10.40;1.00;;;;;;5071344;28;20029;-86
2021/05/25 01:49:14;;;;;;;6.10;1.38;;;10.30;1.00;;;;;;5071653;28;20043;-86
2021/05/25 01:51:45;;;;;;;3.83;1.00;;;10.50;1.00;;;;;;5070007;28;20093;-86
2021/05/25 01:54:11;;;;;;;6.00;1.33;;;10.30;1.00;;;;;;5072312;28;20147;-87
2021/05/25 01:56:36;;;;;;;3.75;1.20;;;10.30;1.00;;;;;;5071036;28;20403;-86
2021/05/25 01:59:02;;;;;;;4.00;1.40;;;10.20;1.00;;;;;;5069886;28;20059;-86
2021/05/25 02:01:27;;;;;;;3.20;1.20;;;10.10;1.00;;;;;;5070789;28;20413;-86
2021/05/25 02:03:53;;;;;;;5.15;1.30;;;10.30;1.00;;;;;;5071019;28;20029;-86
2021/05/25 02:06:19;;;;;;;3.22;1.02;;;10.60;1.00;;;;;;5073061;28;20054;-86
2021/05/25 02:08:45;;;;;;;2.63;1.10;;;10.30;1.00;;;;;;5070985;28;20021;-85
2021/05/25 02:11:10;;;;;;;3.28;0.95;;;10.20;1.00;;;;;;5069708;28;20258;-86
2021/05/25 02:13:39;;;;;;;3.15;1.20;;;10.20;1.00;;;;;;5070786;28;20021;-86
2021/05/25 02:16:08;;;;;;;3.13;1.10;;;10.20;1.00;;;;;;5069553;28;20033;-86
2021/05/25 02:18:36;;;;;;;4.35;1.25;;;10.50;1.00;;;;;;5069477;28;20021;-86
2021/05/25 02:21:05;;;;;;;3.47;1.10;;;10.10;1.00;;;;;;5070381;28;20028;-86
2021/05/25 02:23:31;;;;;;;4.95;1.23;;;10.20;1.00;;;;;;5070175;28;20376;-87
2021/05/25 02:25:57;;;;;;;7.30;1.65;;;10.00;1.00;;;;;;5069647;28;20021;-87
2021/05/25 02:28:23;;;;;;;4.65;1.30;;;9.80;1.00;;;;;;5070974;28;20039;-86
2021/05/25 02:30:50;;;;;;;6.25;1.20;;;9.90;1.00;;;;;;5070345;28;20024;-86
2021/05/25 02:33:18;;;;;;;4.72;1.30;;;9.80;1.00;;;;;;5072565;28;20032;-86
2021/05/25 02:35:44;;;;;;;5.38;1.73;;;9.80;1.00;;;;;;5068656;28;20136;-86
2021/05/25 02:38:12;;;;;;;5.72;2.25;;;9.80;1.00;;;;;;5068253;28;20025;-86
2021/05/25 02:40:38;;;;;;;4.88;1.73;;;9.80;1.00;;;;;;5070299;28;20029;-86
2021/05/25 02:43:04;;;;;;;4.80;1.20;;;9.80;1.00;;;;;;5070108;28;20017;-86
2021/05/25 02:45:31;;;;;;;4.60;1.17;;;10.20;1.00;;;;;;5069869;28;20420;-85
2021/05/25 02:47:57;;;;;;;1.42;1.20;;;9.90;1.00;;;;;;5071342;28;20074;-86
2021/05/25 02:50:23;;;;;;;4.40;1.20;;;10.20;1.00;;;;;;5070500;28;20075;-87
2021/05/25 02:52:50;;;;;;;8.07;1.33;;;9.80;1.00;;;;;;5071372;28;20424;-86
2021/05/25 02:55:18;;;;;;;3.38;1.33;;;9.80;1.00;;;;;;5068897;28;20032;-86
2021/05/25 02:57:44;;;;;;;1.92;1.02;;;9.90;1.00;;;;;;5068992;28;20442;-86
2021/05/25 03:00:16;;;;;;;3.85;1.08;;;9.70;1.00;;;;;;5071535;28;20108;-86
2021/05/25 03:02:42;;;;;;;4.43;1.42;;;9.80;1.00;;;;;;5068997;28;20036;-86
2021/05/25 03:05:10;;;;;;;3.65;1.20;;;9.80;1.00;;;;;;5070742;28;20029;-85
2021/05/25 03:07:36;;;;;;;3.88;1.05;;;9.70;1.00;;;;;;5068689;28;20562;-86
2021/05/25 03:10:08;;;;;;;4.95;1.45;;;10.10;1.00;;;;;;5070235;28;20397;-86
2021/05/25 03:12:34;;;;;;;3.10;0.95;;;9.50;1.00;;;;;;5070517;28;20079;-86
2021/05/25 03:15:00;;;;;;;4.63;1.50;;;9.40;1.00;;;;;;5069542;28;20472;-86
2021/05/25 03:17:26;;;;;;;2.58;1.00;;;9.80;1.00;;;;;;5068630;28;20512;-86
2021/05/25 03:19:52;;;;;;;3.58;1.33;;;9.50;1.00;;;;;;5069557;28;20029;-86
2021/05/25 03:22:18;;;;;;;4.82;1.40;;;9.40;1.00;;;;;;5069759;28;20036;-86
2021/05/25 03:24:44;;;;;;;4.22;1.30;;;9.90;1.00;;;;;;5068576;28;20020;-86
2021/05/25 03:27:09;;;;;;;3.65;1.35;;;9.10;1.00;;;;;;5069208;28;20039;-86
2021/05/25 03:29:35;;;;;;;3.38;1.48;;;9.50;1.00;;;;;;5069915;28;20021;-86
2021/05/25 03:32:01;;;;;;;4.20;1.20;;;10.00;1.00;;;;;;5067728;28;20053;-87
2021/05/25 03:34:26;;;;;;;3.67;1.23;;;9.60;1.00;;;;;;5069632;28;20545;-87
2021/05/25 03:36:52;;;;;;;3.05;1.40;;;9.80;1.00;;;;;;5073867;28;20032;-86
2021/05/25 03:39:18;;;;;;;2.40;1.20;;;9.50;1.00;;;;;;5075409;28;20031;-87
2021/05/25 03:41:43;;;;;;;3.88;1.30;;;9.40;1.00;;;;;;5074139;28;20036;-86
2021/05/25 03:44:15;;;;;;;6.90;1.60;;;9.80;1.00;;;;;;5073748;28;20523;-86
2021/05/25 03:46:42;;;;;;;3.67;1.20;;;9.50;1.00;;;;;;5073849;28;20036;-86
2021/05/25 03:49:08;;;;;;;4.18;1.42;;;9.60;1.00;;;;;;5073759;28;20029;-86
2021/05/25 03:51:34;;;;;;;4.95;1.50;;;9.40;1.00;;;;;;5073003;28;20058;-86
2021/05/25 03:54:04;;;;;;;4.03;1.60;;;9.20;1.00;;;;;;5073227;28;20025;-86
2021/05/25 03:56:34;;;;;;;5.32;1.40;;;9.20;1.00;;;;;;5072877;28;20094;-86
2021/05/25 03:58:59;;;;;;;5.95;1.90;;;9.20;1.00;;;;;;5072374;28;20122;-86
2021/05/25 04:01:27;;;;;;;3.22;1.42;;;9.30;1.00;;;;;;5073400;28;20029;-87
2021/05/25 04:03:55;;;;;;;5.05;1.23;;;9.80;1.00;;;;;;5072661;28;20566;-86
2021/05/25 04:06:22;;;;;;;3.85;1.50;;;9.40;1.00;;;;;;5073583;28;20020;-86
2021/05/25 04:08:48;;;;;;;5.25;1.52;;;9.90;1.00;;;;;;5073321;28;20476;-86
2021/05/25 04:11:15;;;;;;;7.35;1.40;;;10.00;1.00;;;;;;5073870;28;20147;-87
2021/05/25 04:13:41;;;;;;;4.03;1.40;;;9.60;1.00;;;;;;5073333;28;20504;-86
2021/05/25 04:16:12;;;;;;;7.20;1.40;;;9.80;1.00;;;;;;5072978;28;20032;-86
2021/05/25 04:18:39;;;;;;;3.92;1.30;;;9.50;1.00;;;;;;5072435;28;20048;-86
2021/05/25 04:21:04;;;;;;;5.18;1.70;;;9.40;1.00;;;;;;5071673;28;20040;-86
2021/05/25 04:23:31;;;;;;;4.15;1.55;;;9.50;1.00;;;;;;5072129;28;20028;-86
2021/05/25 04:25:56;;;;;;;5.45;1.88;;;9.80;1.00;;;;;;5072870;28;20028;-86
2021/05/25 04:28:22;;;;;;;3.50;1.60;;;10.00;1.00;;;;;;5073047;28;20461;-86
2021/05/25 04:30:49;;;;;;;5.15;1.33;;;9.60;1.00;;;;;;5071221;28;20025;-86
2021/05/25 04:33:14;;;;;;;3.60;1.50;;;9.70;1.00;;;;;;5074166;28;20032;-87
2021/05/25 04:35:40;;;;;;;7.05;2.28;;;9.80;1.00;;;;;;5072588;28;20061;-86
2021/05/25 04:38:06;;;;;;;3.67;1.63;;;9.80;1.00;;;;;;5072343;28;20485;-86
2021/05/25 04:40:33;;;;;;;5.10;1.70;;;9.80;1.00;;;;;;5071391;28;20119;-86
2021/05/25 04:43:00;;;;;;;5.97;1.92;;;10.40;1.00;;;;;;5070169;28;20500;-86
2021/05/25 04:45:26;;;;;;;7.18;1.60;;;10.00;1.00;;;;;;5073831;28;20039;-86
2021/05/25 04:47:52;;;;;;;3.20;1.33;;;10.10;1.00;;;;;;5072230;28;20051;-86
2021/05/25 04:50:19;;;;;;;6.78;1.92;;;10.00;1.00;;;;;;5070566;28;20063;-86
2021/05/25 04:52:46;;;;;;;6.05;1.52;;;10.30;1.00;;;;;;5072291;28;20083;-86
2021/05/25 04:55:14;;;;;;;4.65;1.50;;;10.10;1.00;;;;;;5072843;28;20074;-86
2021/05/25 04:57:40;;;;;;;4.13;1.70;;;9.90;1.00;;;;;;5072349;28;20020;-86
2021/05/25 05:00:09;;;;;;;4.07;1.50;;;9.90;1.00;;;;;;5089642;28;20033;-87
2021/05/25 05:02:34;;;;;;;5.85;2.00;;;9.90;1.00;;;;;;5085646;28;20032;-87
2021/05/25 05:05:00;;;;;;;4.63;1.67;;;9.90;1.00;;;;;;5070606;28;20033;-86
2021/05/25 05:07:26;;;;;;;5.72;1.90;;;9.90;1.00;;;;;;5072290;28;20028;-86
2021/05/25 05:09:51;;;;;;;5.28;1.92;;;9.90;1.00;;;;;;5070709;28;20490;-86
2021/05/25 05:12:17;;;;;;;8.75;2.17;;;9.90;1.00;;;;;;5072616;28;20125;-86
2021/05/25 05:14:43;;;;;;;3.97;1.60;;;10.10;1.00;;;;;;5070322;28;20029;-86
2021/05/25 05:17:08;;;;;;;6.57;1.90;;;10.00;1.00;;;;;;5071584;28;20040;-86
2021/05/25 05:19:34;;;;;;;3.20;1.63;;;10.00;1.00;;;;;;5074332;28;20021;-86
2021/05/25 05:21:59;;;;;;;4.55;2.05;;;10.20;1.00;;;;;;5074306;28;20397;-86
2021/05/25 05:24:25;;;;;;;4.78;1.48;;;10.30;1.00;;;;;;5071544;28;20035;-89
2021/05/25 05:26:51;;;;;;;4.28;1.88;;;10.80;1.00;;;;;;5065229;28;20126;-87
2021/05/25 05:29:17;;;;;;;3.50;1.35;;;10.50;1.00;;;;;;5071741;28;20028;-87
2021/05/25 05:31:44;;;;;;;5.10;1.45;;;10.60;1.00;;;;;;5069001;28;20048;-86
2021/05/25 05:34:10;;;;;;;6.25;1.83;;;10.60;1.00;;;;;;5071960;28;20515;-87
2021/05/25 05:36:35;;;;;;;4.78;2.40;;;10.60;1.00;;;;;;5071127;28;20037;-84
2021/05/25 05:39:02;;;;;;;4.70;1.80;;;10.70;1.00;;;;;;5073317;28;20079;-86
2021/05/25 05:41:28;;;;;;;5.75;1.73;;;10.90;1.00;;;;;;5071799;28;20420;-87
2021/05/25 05:43:53;;;;;;;6.22;1.90;;;10.90;1.00;;;;;;5070714;28;20077;-88
2021/05/25 05:46:19;;;;;;;6.68;2.15;;;11.00;1.00;;;;;;5070426;28;20473;-85
2021/05/25 05:48:45;;;;;;;7.30;2.22;;;11.30;1.00;;;;;;5072676;28;20032;-90
2021/05/25 05:51:11;;;;;;;8.75;1.90;;;11.10;1.00;;;;;;5074106;28;20121;-91
2021/05/25 05:53:37;;;;;;;6.13;1.77;;;11.60;1.00;;;;;;5073631;28;20083;-92
2021/05/25 05:56:02;;;;;;;5.22;1.80;;;11.20;1.00;;;;;;5072807;28;20578;-89
2021/05/25 05:58:28;;;;;;;8.23;2.30;;;11.20;1.00;;;;;;5071894;28;20105;-90
2021/05/25 06:00:54;;;;;;;7.75;2.00;;;11.30;1.00;;;;;;5071965;28;20505;-90
2021/05/25 06:03:19;;;;;;;6.38;2.08;;;11.60;1.00;;;;;;5074085;28;20394;-95
2021/05/25 06:05:46;;;;;;;7.45;2.53;;;12.10;1.00;;;;;;5072062;28;20038;-89
2021/05/25 06:08:13;;;;;;;6.90;2.45;;;12.40;1.00;;;;;;5071485;28;20428;-91
2021/05/25 06:10:40;;;;;;;5.60;2.20;;;12.20;1.00;;;;;;5074167;28;20082;-91
2021/05/25 06:13:06;;;;;;;6.10;2.00;;;12.10;1.00;;;;;;5074288;28;20024;-91
2021/05/25 06:15:33;;;;;;;9.15;2.38;;;11.90;1.00;;;;;;5072430;28;20086;-92
2021/05/25 06:17:59;;;;;;;11.40;2.38;;;11.90;1.00;;;;;;5073960;28;20503;-92
2021/05/25 06:20:26;;;;;;;6.32;1.83;;;11.80;1.00;;;;;;5072744;28;20029;-87
2021/05/25 06:22:51;;;;;;;10.32;2.28;;;11.90;1.00;;;;;;5074039;28;20020;-90
2021/05/25 06:25:17;;;;;;;6.93;2.20;;;12.00;1.00;;;;;;5071494;28;20032;-91
2021/05/25 06:27:43;;;;;;;7.00;2.05;;;12.20;1.00;;;;;;5070991;28;20089;-91
2021/05/25 06:30:10;;;;;;;7.50;2.20;;;12.40;1.00;;;;;;5071336;28;20074;-92
2021/05/25 06:32:37;;;;;;;7.25;2.15;;;12.70;1.00;;;;;;5071407;28;20520;-91
2021/05/25 06:35:05;;;;;;;7.00;1.90;;;13.00;1.00;;;;;;5070790;28;20150;-91
2021/05/25 06:37:31;;;;;;;6.97;2.33;;;13.30;1.00;;;;;;5071086;28;20485;-91
2021/05/25 06:39:57;;;;;;;7.30;2.00;;;13.60;1.00;;;;;;5070914;28;20016;-91
2021/05/25 06:42:23;;;;;;;8.07;1.88;;;13.90;1.00;;;;;;5072303;28;20025;-91
2021/05/25 06:44:49;;;;;;;6.78;1.88;;;14.20;1.00;;;;;;5069201;28;20032;-91
2021/05/25 06:47:15;;;;;;;4.38;1.60;;;14.20;1.00;;;;;;5070211;28;20038;-91
2021/05/25 06:49:40;;;;;;;5.95;1.65;;;14.40;1.00;;;;;;5070805;28;20025;-89
2021/05/25 06:52:07;;;;;;;6.00;1.70;;;14.10;1.00;;;;;;5070598;28;20025;-90
2021/05/25 06:54:33;;;;;;;6.40;1.98;;;14.40;1.00;;;;;;5071501;28;20032;-91
2021/05/25 06:56:59;;;;;;;10.55;1.67;;;14.30;99.90;;;;;;5071027;28;20519;-89
2021/05/25 06:59:25;;;;;;;6.60;1.75;;;14.30;99.90;;;;;;5070318;28;20099;-89
2021/05/25 07:01:53;;;;;;;5.47;1.85;;;14.40;1.00;;;;;;5069764;28;20035;-87
2021/05/25 07:04:18;;;;;;;8.52;3.13;;;14.40;99.90;;;;;;5069379;28;20032;-88
2021/05/25 07:06:44;;;;;;;7.65;2.00;;;14.40;99.90;;;;;;5069652;28;20401;-88
2021/05/25 07:09:10;;;;;;;5.65;1.83;;;14.10;99.90;;;;;;5069414;28;20032;-88
2021/05/25 07:11:35;;;;;;;6.15;1.50;;;13.90;99.90;;;;;;5069629;28;20029;-88
2021/05/25 07:14:01;;;;;;;4.65;1.50;;;13.90;99.90;;;;;;5070582;28;20508;-89
2021/05/25 07:16:27;;;;;;;6.57;2.10;;;13.90;99.90;;;;;;5070476;28;20035;-89
2021/05/25 07:18:52;;;;;;;5.55;1.70;;;13.80;99.90;;;;;;5069249;28;20062;-89
2021/05/25 07:21:18;;;;;;;6.35;2.08;;;13.80;99.90;;;;;;5072517;28;20027;-89
2021/05/25 07:23:44;;;;;;;8.02;2.00;;;13.80;99.90;;;;;;5070784;28;20028;-88
2021/05/25 07:26:09;;;;;;;4.53;1.40;;;13.80;99.90;;;;;;5070546;28;20050;-89
2021/05/25 07:28:35;;;;;;;4.40;1.65;;;13.80;99.90;;;;;;5066534;28;20481;-89
2021/05/25 07:31:01;;;;;;;4.07;1.58;;;14.00;99.90;;;;;;5067027;28;20037;-89
2021/05/25 07:33:27;;;;;;;4.40;1.73;;;14.00;99.90;;;;;;5068846;28;20029;-89
2021/05/25 07:35:53;;;;;;;6.35;1.70;;;14.00;99.90;;;;;;5070438;28;20047;-89
2021/05/25 07:38:20;;;;;;;7.85;1.52;;;14.10;99.90;;;;;;5070400;28;20079;-89
2021/05/25 07:40:45;;;;;;;8.50;1.52;;;14.20;99.90;;;;;;5070263;28;20543;-89
2021/05/25 07:43:11;;;;;;;4.00;1.40;;;14.40;99.90;;;;;;5069676;28;20032;-88
2021/05/25 07:45:37;;;;;;;6.25;1.30;;;14.60;1.00;;;;;;5070982;28;20028;-89
2021/05/25 07:48:03;;;;;;;6.07;1.40;;;14.70;99.90;;;;;;5069327;28;20115;-88
2021/05/25 07:50:29;;;;;;;4.07;1.67;;;14.80;99.90;;;;;;5069068;28;20017;-89
2021/05/25 07:52:55;;;;;;;5.75;2.10;;;15.00;99.90;;;;;;5070019;28;20039;-89
2021/05/25 07:55:27;;;;;;;5.88;1.65;;;15.10;99.90;;;;;;5070044;28;20028;-88
2021/05/25 07:57:54;;;;;;;6.13;1.88;;;15.00;99.90;;;;;;5053842;28;20096;-88
2021/05/25 08:00:21;;;;;;;5.75;1.90;;;15.40;99.90;;;;;;5071790;28;20040;-89
2021/05/25 08:02:47;;;;;;;6.63;2.75;;;15.70;99.90;;;;;;5068440;28;20017;-88
2021/05/25 08:05:15;;;;;;;4.00;1.92;;;15.80;99.90;;;;;;5070123;28;20032;-89
2021/05/25 08:07:42;;;;;;;6.35;2.78;;;15.90;99.90;;;;;;5069510;28;20048;-88
2021/05/25 08:10:08;;;;;;;6.22;2.70;;;16.00;99.90;;;;;;5070656;28;20029;-89
2021/05/25 08:12:34;;;;;;;7.38;3.38;;;16.00;99.90;;;;;;5070255;28;20024;-88
2021/05/25 08:15:02;;;;;;;7.82;2.63;;;15.90;99.90;;;;;;5070429;28;20451;-88
2021/05/25 08:20:16;;;;;;;5.70;1.50;;;15.70;99.90;;;;;;5069279;28;20124;-88
2021/05/25 08:22:44;;;;;;;3.83;1.20;;;15.60;99.90;;;;;;5072720;28;20489;-88
2021/05/25 08:25:10;;;;;;;3.05;1.00;;;15.20;99.90;;;;;;5072824;28;20039;-88
2021/05/25 08:27:36;;;;;;;4.22;1.17;;;14.90;99.90;;;;;;5073967;28;20100;-88
2021/05/25 08:30:03;;;;;;;2.35;0.82;;;14.70;99.90;;;;;;5072734;28;20479;-88
2021/05/25 08:32:29;;;;;;;2.78;1.05;;;14.70;99.90;;;;;;5073136;28;20124;-88
2021/05/25 08:34:55;;;;;;;4.38;1.10;;;14.60;99.90;;;;;;5071342;28;20119;-88
2021/05/25 08:37:20;;;;;;;4.38;1.00;;;14.60;99.90;;;;;;5072398;28;20025;-88
2021/05/25 08:39:46;;;;;;;2.15;1.00;;;14.60;99.90;;;;;;5072002;28;20048;-87
2021/05/25 08:42:13;;;;;;;5.07;1.35;;;14.40;99.90;;;;;;5074018;28;20036;-87
2021/05/25 08:44:39;;;;;;;5.45;1.50;;;14.40;99.90;;;;;;5071862;28;20059;-88
2021/05/25 08:47:05;;;;;;;3.97;1.60;;;15.00;99.90;;;;;;5072198;28;20052;-87
2021/05/25 08:49:32;;;;;;;5.82;1.77;;;14.70;99.90;;;;;;5072559;28;20025;-88
2021/05/25 08:51:58;;;;;;;6.28;1.98;;;14.70;99.90;;;;;;5070367;28;20048;-88
2021/05/25 08:54:23;;;;;;;3.95;1.70;;;14.60;1.00;;;;;;5072269;28;20032;-87
2021/05/25 08:56:49;;;;;;;6.82;2.38;;;14.90;1.00;;;;;;5070186;28;20419;-87
2021/05/25 08:59:15;;;;;;;8.70;2.90;;;15.20;1.00;;;;;;5072693;28;20025;-87
2021/05/25 09:01:40;;;;;;;5.97;2.08;;;15.50;1.00;;;;;;5072071;28;20154;-88
2021/05/25 09:04:07;;;;;;;8.18;2.65;;;15.80;99.90;;;;;;5070619;28;20021;-88
2021/05/25 09:06:41;;;;;;;4.15;1.17;;;16.40;99.90;;;;;;5072082;28;20424;-88
2021/05/25 09:09:13;;;;;;;4.18;1.23;;;16.80;99.90;;;;;;5071935;28;20032;-88
2021/05/25 09:12:09;;;;;;;3.28;1.02;;;17.40;99.90;;;;;;5072779;28;20439;-88
2021/05/25 09:14:49;;;;;;;3.13;1.23;;;17.90;99.90;;;;;;5071728;28;20032;-88
2021/05/25 09:17:15;;;;;;;4.38;1.00;;;18.20;99.90;;;;;;5070944;28;20078;-88
2021/05/25 09:19:49;;;;;;;3.53;1.13;;;18.00;99.90;;;;;;5071785;28;20028;-88
2021/05/25 09:22:44;;;;;;;2.97;1.17;;;17.50;99.90;;;;;;5072038;28;20039;-88
2021/05/25 09:25:22;;;;;;;3.10;1.13;;;17.40;99.90;;;;;;5048486;28;20467;-88
2021/05/25 09:30:48;;;;;;;3.53;1.15;;;17.00;99.90;;;;;;5066386;28;20041;-87
2021/05/25 09:33:15;;;;;;;4.85;1.17;;;17.50;99.90;;;;;;5072249;28;20607;-88
2021/05/25 09:35:44;;;;;;;2.40;1.00;;;17.60;99.90;;;;;;5056161;28;20040;-86
2021/05/25 09:38:13;;;;;;;5.20;1.33;;;17.40;99.90;;;;;;5064581;28;20039;-88
2021/05/25 09:40:42;;;;;;;2.72;1.08;;;17.80;99.90;;;;;;5073904;28;20431;-88
2021/05/25 09:43:25;;;;;;;2.70;0.95;;;17.50;99.90;;;;;;5072554;28;20035;-88
2021/05/25 09:46:05;;;;;;;2.38;0.90;;;17.60;99.90;;;;;;5070688;28;20025;-88
2021/05/25 09:48:53;;;;;;;5.93;1.17;;;17.30;99.90;;;;;;5070982;28;20052;-88
2021/05/25 09:51:26;;;;;;;4.38;1.15;;;17.60;99.90;;;;;;5073124;28;20036;-87
2021/05/25 09:53:52;;;;;;;2.15;1.15;;;17.90;99.90;;;;;;5068754;28;20382;-92
2021/05/25 09:56:25;;;;;;;2.75;1.38;;;17.80;99.90;;;;;;5059098;28;20071;-87
2021/05/25 09:58:50;;;;;;;4.22;1.55;;;17.80;99.90;;;;;;5061294;28;20021;-88
2021/05/25 10:01:16;;;;;;;3.83;1.30;;;18.10;99.90;;;;;;5071703;28;20201;-88
2021/05/25 10:03:52;;;;;;;3.65;0.95;;;18.40;99.90;;;;;;5070835;28;20024;-87
2021/05/25 10:06:18;;;;;;;2.63;1.40;;;18.40;99.90;;;;;;5072212;28;20036;-87
2021/05/25 10:08:45;;;;;;;3.40;1.17;;;18.10;99.90;;;;;;5070337;28;20492;-89
2021/05/25 10:11:15;;;;;;;2.47;1.30;;;18.00;99.90;;;;;;5072121;28;20040;-86
2021/05/25 10:13:41;;;;;;;4.25;1.13;;;17.80;99.90;;;;;;5070258;28;20021;-86
2021/05/25 10:16:08;;;;;;;3.17;1.27;;;17.30;99.90;;;;;;5069803;28;20037;-87
2021/05/25 10:21:23;;;;;;;3.47;1.20;;;17.90;99.90;;;;;;5030381;28;20141;-83
2021/05/25 10:23:48;;;;;;;2.60;0.95;;;17.70;99.90;;;;;;5030942;28;20116;-88
2021/05/25 10:26:19;;;;;;;1.80;1.08;;;17.70;99.90;;;;;;5029970;28;20702;-88
2021/05/25 10:28:50;;;;;;;4.57;1.23;;;18.00;99.90;;;;;;5029336;28;20022;-87
2021/05/25 10:31:38;;;;;;;3.17;1.10;;;17.20;99.90;;;;;;5029283;28;20048;-86
2021/05/25 10:34:34;;;;;;;3.88;1.20;;;16.90;99.90;;;;;;5015432;28;20586;-88
2021/05/25 10:37:02;;;;;;;3.25;1.15;;;17.10;99.90;;;;;;5030341;28;20469;-87
2021/05/25 10:39:34;;;;;;;4.03;0.93;;;16.70;99.90;;;;;;5029482;28;20407;-89
2021/05/25 10:42:31;;;;;;;3.65;1.27;;;16.90;99.90;;;;;;5030316;28;20674;-89
2021/05/25 10:45:02;;;;;;;3.22;1.02;;;16.80;99.90;;;;;;5029424;28;20104;-85
2021/05/25 10:47:37;;;;;;;2.45;0.73;;;16.70;99.90;;;;;;5028640;28;20087;-84
2021/05/25 10:50:24;;;;;;;2.85;0.95;;;16.80;99.90;;;;;;5028287;28;20029;-85
2021/05/25 10:52:56;;;;;;;2.35;0.93;;;16.70;99.90;;;;;;5028629;28;20037;-84
2021/05/25 10:55:43;;;;;;;3.03;0.95;;;17.30;99.90;;;;;;5028712;28;20044;-84
2021/05/25 10:58:30;;;;;;;2.80;1.00;;;17.50;99.90;;;;;;5030962;28;20090;-84
2021/05/25 11:01:03;;;;;;;2.38;1.00;;;17.90;99.90;;;;;;5053376;28;20502;-85
2021/05/25 11:03:29;;;;;;;1.90;0.80;;;18.20;99.90;;;;;;5069500;28;20111;-84
2021/05/25 11:06:02;;;;;;;3.00;0.80;;;18.80;99.90;;;;;;5068052;28;20501;-84
2021/05/25 11:08:33;;;;;;;2.50;1.10;;;19.30;99.90;;;;;;5069988;28;20032;-84
2021/05/25 11:11:13;;;;;;;2.60;1.00;;;19.70;99.90;;;;;;5069515;28;20029;-86
2021/05/25 11:13:45;;;;;;;3.60;0.80;;;19.40;99.90;;;;;;5069772;28;20498;-88
2021/05/25 11:16:30;;;;;;;4.18;1.67;;;18.40;99.90;;;;;;5069487;28;20032;-86
2021/05/25 11:19:18;;;;;;;3.28;1.20;;;18.40;99.90;;;;;;5056360;28;20032;-89
2021/05/25 11:21:59;;;;;;;3.95;1.13;;;19.10;99.90;;;;;;5069577;28;20031;-90
2021/05/25 11:24:34;;;;;;;4.78;1.00;;;19.30;99.90;;;;;;5068446;28;20034;-88
2021/05/25 11:27:08;;;;;;;3.42;1.00;;;19.90;99.90;;;;;;5071523;28;20538;-89
2021/05/25 11:29:36;;;;;;;2.28;0.95;;;20.00;99.90;;;;;;5069857;28;20131;-91
2021/05/25 11:32:21;;;;;;;4.15;1.13;;;19.90;99.90;;;;;;5069816;28;20567;-89
2021/05/25 11:35:15;;;;;;;1.92;1.00;;;19.90;99.90;;;;;;5069291;28;20032;-88
2021/05/25 11:37:46;;;;;;;3.40;0.98;;;19.50;99.90;;;;;;5066847;28;20371;-88
2021/05/25 11:40:17;;;;;;;2.50;0.70;;;19.20;99.90;;;;;;5068081;28;20036;-88
2021/05/25 11:42:44;;;;;;;2.03;0.80;;;19.30;99.90;;;;;;5069685;28;20101;-88
2021/05/25 11:45:11;;;;;;;2.40;1.05;;;19.40;99.90;;;;;;5071639;28;20020;-88
2021/05/25 11:47:38;;;;;;;1.58;0.90;;;20.20;99.90;;;;;;5069301;28;20024;-88
2021/05/25 11:50:05;;;;;;;3.25;0.85;;;20.20;99.90;;;;;;5068894;28;20024;-88
2021/05/25 11:52:32;;;;;;;3.30;0.95;;;19.80;99.90;;;;;;5068334;28;20035;-88
2021/05/25 11:55:08;;;;;;;2.38;1.10;;;19.90;99.90;;;;;;5066500;28;20039;-88
2021/05/25 11:57:37;;;;;;;2.17;0.95;;;20.80;99.90;;;;;;5071827;28;20033;-89
2021/05/25 12:00:09;;;;;;;2.58;0.95;;;22.20;99.90;;;;;;5073035;28;20016;-88
2021/05/25 12:02:36;;;;;;;3.60;0.90;;;23.70;99.90;;;;;;5072603;28;20035;-88
2021/05/25 12:05:06;;;;;;;1.73;0.73;;;24.10;99.90;;;;;;5072966;28;20048;-88
2021/05/25 12:07:32;;;;;;;2.55;0.82;;;25.60;99.90;;;;;;5072307;28;20028;-88
2021/05/25 12:10:00;;;;;;;1.67;0.65;;;26.00;99.90;;;;;;5073118;28;20030;-89
2021/05/25 12:12:28;;;;;;;2.03;0.70;;;25.90;99.90;;;;;;5074386;28;20082;-88
2021/05/25 12:14:56;;;;;;;1.50;0.70;;;26.80;99.90;;;;;;5073475;28;20082;-88
2021/05/25 12:17:24;;;;;;;3.03;0.80;;;26.30;99.90;;;;;;5072713;28;20050;-88
2021/05/25 12:19:58;;;;;;;1.60;0.73;;;26.40;99.90;;;;;;5071046;28;20036;-88
2021/05/25 12:22:38;;;;;;;1.00;0.68;;;27.30;99.90;;;;;;5071439;28;20043;-88
2021/05/25 12:25:28;;;;;;;2.95;0.68;;;27.60;99.90;;;;;;5058289;28;20036;-88
2021/05/25 12:28:14;;;;;;;2.42;0.70;;;27.70;99.90;;;;;;5057364;28;20043;-89
2021/05/25 12:30:45;;;;;;;1.38;0.60;;;26.90;99.90;;;;;;5070806;28;20032;-88
2021/05/25 12:33:26;;;;;;;0.80;0.63;;;27.00;99.90;;;;;;5073947;28;20105;-87
2021/05/25 12:35:52;;;;;;;1.85;0.82;;;27.20;99.90;;;;;;5087215;28;20043;-88
2021/05/25 12:38:20;;;;;;;2.20;0.60;;;27.20;99.90;;;;;;5087638;28;20033;-88
2021/05/25 12:41:01;;;;;;;1.80;0.82;;;25.80;99.90;;;;;;5072136;28;20570;-88
2021/05/25 12:43:29;;;;;;;1.98;0.93;;;25.70;99.90;;;;;;5072314;28;20021;-88
2021/05/25 12:46:09;;;;;;;2.00;0.90;;;25.10;99.90;;;;;;5071832;28;20025;-89
2021/05/25 12:48:42;;;;;;;1.83;0.80;;;24.60;99.90;;;;;;5072578;28;20017;-89
2021/05/25 12:51:09;;;;;;;1.48;0.55;;;24.90;99.90;;;;;;5072923;28;20020;-88
2021/05/25 12:53:52;;;;;;;1.25;0.70;;;25.10;99.90;;;;;;5071256;28;20553;-88
2021/05/25 12:56:20;;;;;;;1.98;0.65;;;24.70;99.90;;;;;;5072237;28;20044;-88
2021/05/25 12:58:47;;;;;;;2.47;0.77;;;23.80;99.90;;;;;;5070564;28;20090;-88
2021/05/25 13:01:25;;;;;;;1.33;0.55;;;24.90;99.90;;;;;;5071269;28;20400;-88
2021/05/25 13:04:15;;;;;;;0.90;0.60;;;25.10;99.90;;;;;;5056319;28;20083;-88
2021/05/25 13:06:52;;;;;;;2.08;0.77;;;25.70;99.90;;;;;;5067647;28;20025;-88
2021/05/25 13:09:20;;;;;;;1.90;0.77;;;24.70;99.90;;;;;;5068723;28;20033;-88